createdAt,value
2023-05-14T00:00:33.742Z,6.3
2023-05-14T00:01:42.093Z,6.3
2023-05-14T00:02:50.476Z,6.3
2023-05-14T00:03:59.177Z,5.8
2023-05-14T00:05:07.284Z,5.8
2023-05-14T00:06:15.604Z,5.8
2023-05-14T00:07:24.152Z,6.1
2023-05-14T00:08:32.481Z,6.1
2023-05-14T00:09:40.844Z,6.1
2023-05-14T00:10:49.364Z,6.7
2023-05-14T00:11:57.689Z,6.7
2023-05-14T00:13:06.006Z,6.7
2023-05-14T00:14:14.562Z,6.4
2023-05-14T00:15:22.899Z,6.4
2023-05-14T00:16:31.260Z,6.4
2023-05-14T00:17:39.762Z,7.1
2023-05-14T00:18:48.063Z,7.1
2023-05-14T00:19:56.392Z,7.1
2023-05-14T00:21:04.918Z,6
2023-05-14T00:22:13.239Z,6
2023-05-14T00:23:21.587Z,6
2023-05-14T00:24:30.114Z,6.5
2023-05-14T00:25:38.437Z,6.5
2023-05-14T00:26:46.761Z,6.5
2023-05-14T00:27:55.305Z,6.1
2023-05-14T00:29:03.613Z,6.1
2023-05-14T00:30:11.928Z,6.1
2023-05-14T00:31:20.544Z,6.1
2023-05-14T00:32:28.810Z,6.1
2023-05-14T00:33:37.105Z,6.1
2023-05-14T00:34:45.633Z,5.8
2023-05-14T00:35:53.944Z,5.8
2023-05-14T00:37:02.282Z,5.8
2023-05-14T00:38:10.819Z,6.1
2023-05-14T00:39:19.133Z,6.1
2023-05-14T00:40:27.453Z,6.1
2023-05-14T00:41:36.000Z,6.1
2023-05-14T00:42:44.333Z,6.1
2023-05-14T00:43:52.654Z,6.1
2023-05-14T00:45:01.188Z,6.5
2023-05-14T00:46:09.507Z,6.5
2023-05-14T00:47:17.854Z,6.5
2023-05-14T00:48:26.360Z,7
2023-05-14T00:49:34.693Z,7
2023-05-14T00:50:43.003Z,7
2023-05-14T00:51:51.537Z,5.7
2023-05-14T00:52:59.849Z,5.7
2023-05-14T00:54:08.184Z,5.7
2023-05-14T00:55:16.741Z,6.3
2023-05-14T00:56:25.050Z,6.3
2023-05-14T00:57:33.389Z,6.3
2023-05-14T00:58:41.883Z,5.6
2023-05-14T00:59:50.209Z,5.6
2023-05-14T01:00:58.573Z,5.6
2023-05-14T01:02:07.077Z,4.7
2023-05-14T01:03:15.443Z,4.7
2023-05-14T01:04:23.700Z,4.7
2023-05-14T01:05:32.242Z,6.1
2023-05-14T01:06:40.558Z,6.1
2023-05-14T01:07:48.881Z,6.1
2023-05-14T01:08:57.439Z,5.4
2023-05-14T01:10:05.780Z,5.4
2023-05-14T01:11:14.090Z,5.4
2023-05-14T01:12:22.615Z,6.9
2023-05-14T01:13:30.948Z,6.9
2023-05-14T01:14:39.262Z,6.9
2023-05-14T01:15:47.808Z,7.9
2023-05-14T01:16:56.172Z,7.9
2023-05-14T01:18:04.499Z,7.9
2023-05-14T01:19:13.036Z,8.2
2023-05-14T01:20:21.380Z,8.2
2023-05-14T01:21:29.627Z,8.2
2023-05-14T01:22:38.159Z,7.4
2023-05-14T01:23:46.491Z,7.4
2023-05-14T01:24:54.819Z,7.4
2023-05-14T01:26:03.344Z,6.5
2023-05-14T01:29:31.643Z,6.5
2023-05-14T01:30:40.209Z,6.6
2023-05-14T01:31:48.562Z,6.6
2023-05-14T01:32:56.926Z,6.6
2023-05-14T01:34:05.438Z,7
2023-05-14T01:35:13.811Z,7
2023-05-14T01:36:22.105Z,7
2023-05-14T01:37:30.650Z,5.6
2023-05-14T01:38:39.001Z,5.6
2023-05-14T01:39:47.346Z,5.6
2023-05-14T01:40:55.903Z,5.5
2023-05-14T01:42:04.237Z,5.5
2023-05-14T01:43:12.632Z,5.5
2023-05-14T01:44:21.171Z,5.1
2023-05-14T01:45:29.462Z,5.1
2023-05-14T01:46:37.916Z,5.1
2023-05-14T01:47:46.369Z,6
2023-05-14T01:48:54.712Z,6
2023-05-14T01:50:03.048Z,6
2023-05-14T01:51:11.614Z,6
2023-05-14T01:52:19.950Z,6
2023-05-14T01:53:28.281Z,6
2023-05-14T01:54:36.865Z,6.3
2023-05-14T01:55:45.193Z,6.3
2023-05-14T01:56:53.562Z,6.3
2023-05-14T01:58:02.105Z,5.7
2023-05-14T01:59:10.439Z,5.7
2023-05-14T02:00:18.768Z,5.7
2023-05-14T02:01:27.321Z,6.4
2023-05-14T02:02:35.682Z,6.4
2023-05-14T02:03:44.004Z,6.4
2023-05-14T02:04:52.532Z,6
2023-05-14T02:06:00.872Z,6
2023-05-14T02:07:09.231Z,6
2023-05-14T02:08:17.743Z,5.8
2023-05-14T02:09:26.098Z,5.8
2023-05-14T02:10:34.419Z,5.8
2023-05-14T02:11:42.979Z,6
2023-05-14T02:12:51.303Z,6
2023-05-14T02:13:59.635Z,6
2023-05-14T02:15:08.176Z,6.5
2023-05-14T02:16:16.554Z,6.5
2023-05-14T02:17:24.854Z,6.5
2023-05-14T02:18:33.441Z,6.6
2023-05-14T02:19:41.724Z,6.6
2023-05-14T02:20:50.061Z,6.6
2023-05-14T02:21:58.592Z,6.2
2023-05-14T02:23:06.946Z,6.2
2023-05-14T02:24:15.268Z,6.2
2023-05-14T02:25:23.809Z,8.3
2023-05-14T02:26:32.147Z,8.3
2023-05-14T02:27:40.481Z,8.3
2023-05-14T02:28:49.015Z,7.8
2023-05-14T02:29:57.364Z,7.8
2023-05-14T02:31:05.755Z,7.8
2023-05-14T02:32:14.280Z,7.5
2023-05-14T02:33:22.645Z,7.5
2023-05-14T02:34:30.895Z,7.5
2023-05-14T02:35:39.460Z,7.5
2023-05-14T02:36:47.788Z,7.5
2023-05-14T02:37:56.120Z,7.5
2023-05-14T02:39:04.704Z,8.3
2023-05-14T02:40:13.034Z,8.3
2023-05-14T02:41:21.364Z,8.3
2023-05-14T02:42:29.905Z,7.3
2023-05-14T02:43:38.233Z,7.3
2023-05-14T02:44:46.600Z,7.3
2023-05-14T02:45:55.121Z,9.3
2023-05-14T02:47:03.518Z,9.3
2023-05-14T02:48:11.805Z,9.3
2023-05-14T02:49:20.321Z,7.9
2023-05-14T02:50:28.652Z,7.9
2023-05-14T02:51:37.012Z,7.9
2023-05-14T02:52:45.537Z,8.1
2023-05-14T02:53:53.898Z,8.1
2023-05-14T02:55:02.253Z,8.1
2023-05-14T02:56:10.761Z,9.9
2023-05-14T02:57:19.116Z,9.9
2023-05-14T02:58:28.559Z,9.9
2023-05-14T02:59:36.023Z,9
2023-05-14T03:00:44.393Z,9
2023-05-14T03:01:52.748Z,9
2023-05-14T03:03:01.255Z,8
2023-05-14T03:04:09.624Z,8
2023-05-14T03:05:17.940Z,8
2023-05-14T03:06:26.522Z,7.9
2023-05-14T03:07:34.863Z,7.9
2023-05-14T03:08:43.206Z,7.9
2023-05-14T03:09:51.747Z,7.5
2023-05-14T03:11:00.121Z,7.5
2023-05-14T03:12:08.409Z,7.5
2023-05-14T03:13:16.981Z,7.6
2023-05-14T03:14:25.317Z,7.6
2023-05-14T03:15:33.643Z,7.6
2023-05-14T03:16:42.338Z,8.3
2023-05-14T03:17:50.578Z,8.3
2023-05-14T03:18:58.880Z,8.3
2023-05-14T03:20:07.405Z,10.9
2023-05-14T03:21:15.734Z,10.9
2023-05-14T03:22:24.129Z,10.9
2023-05-14T03:23:32.650Z,8.2
2023-05-14T03:24:40.970Z,8.2
2023-05-14T03:25:49.319Z,8.2
2023-05-14T03:26:57.885Z,9.2
2023-05-14T03:28:06.195Z,9.2
2023-05-14T03:29:14.519Z,9.2
2023-05-14T03:30:23.203Z,8.6
2023-05-14T03:31:31.401Z,8.6
2023-05-14T03:32:39.771Z,8.6
2023-05-14T03:33:48.277Z,10.3
2023-05-14T03:34:56.610Z,10.3
2023-05-14T03:36:04.960Z,10.3
2023-05-14T03:37:13.510Z,9.4
2023-05-14T03:38:21.836Z,9.4
2023-05-14T03:39:30.153Z,9.4
2023-05-14T03:40:38.704Z,9.5
2023-05-14T03:41:47.037Z,9.5
2023-05-14T03:42:55.387Z,9.5
2023-05-14T03:44:03.913Z,10
2023-05-14T03:45:12.270Z,10
2023-05-14T03:46:20.620Z,10
2023-05-14T03:47:29.169Z,10.4
2023-05-14T03:48:37.537Z,10.4
2023-05-14T03:49:45.824Z,10.4
2023-05-14T03:50:54.392Z,8.9
2023-05-14T03:52:02.715Z,8.9
2023-05-14T03:53:11.038Z,8.9
2023-05-14T03:54:19.577Z,8.7
2023-05-14T03:55:27.924Z,8.7
2023-05-14T03:56:36.245Z,8.7
2023-05-14T03:57:44.838Z,9
2023-05-14T03:58:53.185Z,9
2023-05-14T04:00:01.514Z,9
2023-05-14T04:01:10.068Z,9
2023-05-14T04:02:18.409Z,9
2023-05-14T04:03:26.792Z,9
2023-05-14T04:04:35.329Z,9.3
2023-05-14T04:05:43.606Z,9.3
2023-05-14T04:06:51.939Z,9.3
2023-05-14T04:08:00.515Z,9.2
2023-05-14T04:09:08.883Z,9.2
2023-05-14T04:10:17.218Z,9.2
2023-05-14T04:11:25.776Z,9.2
2023-05-14T04:12:34.107Z,9.2
2023-05-14T04:13:42.443Z,9.2
2023-05-14T04:14:51.014Z,9.4
2023-05-14T04:15:59.362Z,9.4
2023-05-14T04:17:07.667Z,9.4
2023-05-14T04:18:16.227Z,9.6
2023-05-14T04:19:24.592Z,9.6
2023-05-14T04:20:32.914Z,9.6
2023-05-14T04:21:41.453Z,8.4
2023-05-14T04:22:49.781Z,8.4
2023-05-14T04:23:58.127Z,8.4
2023-05-14T04:25:06.683Z,9.2
2023-05-14T04:26:15.009Z,9.2
2023-05-14T04:27:23.352Z,9.2
2023-05-14T04:28:31.893Z,8.8
2023-05-14T04:29:40.470Z,8.8
2023-05-14T04:30:48.832Z,8.8
2023-05-14T04:31:57.372Z,9
2023-05-14T04:33:05.728Z,9
2023-05-14T04:34:14.047Z,9
2023-05-14T04:35:24.176Z,8.8
2023-05-14T04:36:30.953Z,8.8
2023-05-14T04:37:39.293Z,8.8
2023-05-14T04:38:47.848Z,10.3
2023-05-14T04:39:56.198Z,10.3
2023-05-14T04:41:04.524Z,10.3
2023-05-14T04:42:13.070Z,8.4
2023-05-14T04:43:21.425Z,8.4
2023-05-14T04:44:29.747Z,8.4
2023-05-14T04:45:38.304Z,8.8
2023-05-14T04:46:46.683Z,8.8
2023-05-14T04:47:55.098Z,8.8
2023-05-14T04:49:03.527Z,10
2023-05-14T04:50:11.855Z,10
2023-05-14T04:51:20.213Z,10
2023-05-14T04:52:28.750Z,8.5
2023-05-14T04:53:37.083Z,8.5
2023-05-14T04:54:45.476Z,8.5
2023-05-14T04:55:53.989Z,8.9
2023-05-14T04:57:02.322Z,8.9
2023-05-14T04:58:10.674Z,8.9
2023-05-14T04:59:19.206Z,9.2
2023-05-14T05:00:27.594Z,9.2
2023-05-14T05:01:35.927Z,9.2
2023-05-14T05:02:44.507Z,8.2
2023-05-14T05:03:52.852Z,8.2
2023-05-14T05:05:01.114Z,8.2
2023-05-14T05:06:09.680Z,8.2
2023-05-14T05:07:18.025Z,8.2
2023-05-14T05:08:26.366Z,8.2
2023-05-14T05:09:34.892Z,8.9
2023-05-14T05:10:43.232Z,8.9
2023-05-14T05:11:51.571Z,8.9
2023-05-14T05:13:00.111Z,8.7
2023-05-14T05:14:08.445Z,8.7
2023-05-14T05:15:16.777Z,8.7
2023-05-14T05:16:25.368Z,8.9
2023-05-14T05:17:33.663Z,8.9
2023-05-14T05:18:42.036Z,8.9
2023-05-14T05:19:50.535Z,9.1
2023-05-14T05:20:58.897Z,9.1
2023-05-14T05:22:07.222Z,9.1
2023-05-14T05:23:15.765Z,8.8
2023-05-14T05:24:24.114Z,8.8
2023-05-14T05:25:32.476Z,8.8
2023-05-14T05:26:41.042Z,8.9
2023-05-14T05:27:49.356Z,8.9
2023-05-14T05:28:57.710Z,8.9
2023-05-14T05:30:06.285Z,8.7
2023-05-14T05:31:14.696Z,8.7
2023-05-14T05:32:22.963Z,8.7
2023-05-14T05:33:31.512Z,8.6
2023-05-14T05:34:39.904Z,8.6
2023-05-14T05:35:48.245Z,8.6
2023-05-14T05:36:56.760Z,9.6
2023-05-14T05:38:05.103Z,9.6
2023-05-14T05:39:13.444Z,9.6
2023-05-14T05:40:22.141Z,10
2023-05-14T05:41:30.381Z,10
2023-05-14T05:42:38.758Z,10
2023-05-14T05:43:47.311Z,8.9
2023-05-14T05:44:55.663Z,8.9
2023-05-14T05:46:04.061Z,8.9
2023-05-14T05:47:12.613Z,10.4
2023-05-14T05:48:20.951Z,10.4
2023-05-14T05:49:29.301Z,10.4
2023-05-14T05:50:37.869Z,9.8
2023-05-14T05:51:46.167Z,9.8
2023-05-14T05:52:54.534Z,9.8
2023-05-14T05:54:03.124Z,10.3
2023-05-14T05:55:11.471Z,10.3
2023-05-14T05:56:19.812Z,10.3
2023-05-14T05:57:28.360Z,10.7
2023-05-14T05:58:36.703Z,10.7
2023-05-14T05:59:45.067Z,10.7
2023-05-14T06:00:53.618Z,10.2
2023-05-14T06:02:02.014Z,10.2
2023-05-14T06:03:10.329Z,10.2
2023-05-14T06:04:18.889Z,9.1
2023-05-14T06:05:27.241Z,9.1
2023-05-14T06:06:35.576Z,9.1
2023-05-14T06:07:44.103Z,9.9
2023-05-14T06:08:52.445Z,9.9
2023-05-14T06:10:00.812Z,9.9
2023-05-14T06:11:09.393Z,8.6
2023-05-14T06:12:17.732Z,8.6
2023-05-14T06:13:26.092Z,8.6
2023-05-14T06:14:34.650Z,9.7
2023-05-14T06:15:43.012Z,9.7
2023-05-14T06:16:51.397Z,9.7
2023-05-14T06:17:59.910Z,9.4
2023-05-14T06:19:08.317Z,9.4
2023-05-14T06:20:16.587Z,9.4
2023-05-14T06:21:25.129Z,9.1
2023-05-14T06:22:33.499Z,9.1
2023-05-14T06:23:41.836Z,9.1
2023-05-14T06:24:50.392Z,9.4
2023-05-14T06:25:58.712Z,9.4
2023-05-14T06:27:07.042Z,9.4
2023-05-14T06:28:15.603Z,9.5
2023-05-14T06:29:23.961Z,9.5
2023-05-14T06:30:32.286Z,9.5
2023-05-14T06:31:40.872Z,8.6
2023-05-14T06:32:49.235Z,8.6
2023-05-14T06:33:57.563Z,8.6
2023-05-14T06:35:06.106Z,11.2
2023-05-14T06:36:14.483Z,11.2
2023-05-14T06:37:22.818Z,11.2
2023-05-14T06:38:31.383Z,9.4
2023-05-14T06:39:39.709Z,9.4
2023-05-14T06:40:48.067Z,9.4
2023-05-14T06:41:56.606Z,9.2
2023-05-14T06:43:04.959Z,9.2
2023-05-14T06:44:13.296Z,9.2
2023-05-14T06:45:21.847Z,10
2023-05-14T06:46:30.206Z,10
2023-05-14T06:47:38.567Z,10
2023-05-14T06:48:47.144Z,8.8
2023-05-14T06:49:55.464Z,8.8
2023-05-14T06:51:03.829Z,8.8
2023-05-14T06:52:12.388Z,8
2023-05-14T06:53:20.700Z,8
2023-05-14T06:54:29.094Z,8
2023-05-14T06:55:37.618Z,8.5
2023-05-14T06:56:45.935Z,8.5
2023-05-14T06:57:54.316Z,8.5
2023-05-14T06:59:02.845Z,8.3
2023-05-14T07:00:11.196Z,8.3
2023-05-14T07:01:19.592Z,8.3
2023-05-14T07:02:28.113Z,8.1
2023-05-14T07:03:36.411Z,8.1
2023-05-14T07:04:45.041Z,8.1
2023-05-14T07:05:53.532Z,8
2023-05-14T07:07:01.877Z,8
2023-05-14T07:08:10.217Z,8
2023-05-14T07:09:18.789Z,8.4
2023-05-14T07:10:27.170Z,8.4
2023-05-14T07:11:35.445Z,8.4
2023-05-14T07:12:44.001Z,7.9
2023-05-14T07:13:52.363Z,7.9
2023-05-14T07:15:00.705Z,7.9
2023-05-14T07:16:09.243Z,9
2023-05-14T07:17:17.641Z,9
2023-05-14T07:18:25.977Z,9
2023-05-14T07:19:34.526Z,8
2023-05-14T07:20:42.852Z,8
2023-05-14T07:21:51.180Z,8
2023-05-14T07:22:59.729Z,8.3
2023-05-14T07:24:08.065Z,8.3
2023-05-14T07:25:16.412Z,8.3
2023-05-14T07:26:24.974Z,8.7
2023-05-14T07:27:33.293Z,8.7
2023-05-14T07:28:41.653Z,8.7
2023-05-14T07:29:50.201Z,8.3
2023-05-14T07:30:58.582Z,8.3
2023-05-14T07:32:06.869Z,8.3
2023-05-14T07:33:15.437Z,9
2023-05-14T07:34:23.772Z,9
2023-05-14T07:35:32.125Z,9
2023-05-14T07:36:40.677Z,9.4
2023-05-14T07:37:49.042Z,9.4
2023-05-14T07:38:57.379Z,9.4
2023-05-14T07:40:05.935Z,9.2
2023-05-14T07:41:14.267Z,9.2
2023-05-14T07:42:34.946Z,9.2
2023-05-14T07:43:31.152Z,9.4
2023-05-14T07:44:39.525Z,9.4
2023-05-14T07:45:47.850Z,9.4
2023-05-14T07:46:56.505Z,8.6
2023-05-14T07:48:04.831Z,8.6
2023-05-14T07:49:13.140Z,8.6
2023-05-14T07:50:21.777Z,9.4
2023-05-14T07:51:30.023Z,9.4
2023-05-14T07:52:38.363Z,9.4
2023-05-14T07:53:46.907Z,11
2023-05-14T07:54:55.236Z,11
2023-05-14T07:56:03.577Z,11
2023-05-14T07:57:12.115Z,9.7
2023-05-14T07:58:20.470Z,9.7
2023-05-14T07:59:28.779Z,9.7
2023-05-14T08:00:37.326Z,8.7
2023-05-14T08:01:45.687Z,8.7
2023-05-14T08:02:54.143Z,8.7
2023-05-14T08:04:02.682Z,10.8
2023-05-14T08:05:10.895Z,10.8
2023-05-14T08:06:19.238Z,10.8
2023-05-14T08:07:27.796Z,10.3
2023-05-14T08:08:36.123Z,10.3
2023-05-14T08:09:44.514Z,10.3
2023-05-14T08:10:53.070Z,9.3
2023-05-14T08:12:01.403Z,9.3
2023-05-14T08:13:09.729Z,9.3
2023-05-14T08:14:18.326Z,9.3
2023-05-14T08:15:27.966Z,9.3
2023-05-14T08:16:35.009Z,9.3
2023-05-14T08:17:43.528Z,9.4
2023-05-14T08:18:51.924Z,9.4
2023-05-14T08:20:00.197Z,9.4
2023-05-14T08:21:08.773Z,8.5
2023-05-14T08:22:17.106Z,8.5
2023-05-14T08:23:25.447Z,8.5
2023-05-14T08:24:34.017Z,9.1
2023-05-14T08:25:42.364Z,9.1
2023-05-14T08:26:50.719Z,9.1
2023-05-14T08:27:59.250Z,9.3
2023-05-14T08:29:09.347Z,9.3
2023-05-14T08:30:15.976Z,9.3
2023-05-14T08:31:24.545Z,8.9
2023-05-14T08:32:32.834Z,8.9
2023-05-14T08:33:41.167Z,8.9
2023-05-14T08:34:49.745Z,9.5
2023-05-14T08:35:58.055Z,9.5
2023-05-14T08:37:06.387Z,9.5
2023-05-14T08:38:14.955Z,9.2
2023-05-14T08:39:23.308Z,9.2
2023-05-14T08:40:31.635Z,9.2
2023-05-14T08:41:40.176Z,9.3
2023-05-14T08:42:48.525Z,9.3
2023-05-14T08:43:56.871Z,9.3
2023-05-14T08:45:05.416Z,10.5
2023-05-14T08:46:13.798Z,10.5
2023-05-14T08:47:22.144Z,10.5
2023-05-14T08:48:30.751Z,11
2023-05-14T08:49:39.037Z,11
2023-05-14T08:50:47.375Z,11
2023-05-14T08:51:55.920Z,8.4
2023-05-14T08:53:04.250Z,8.4
2023-05-14T08:54:12.623Z,8.4
2023-05-14T08:55:21.197Z,9.5
2023-05-14T08:56:29.566Z,9.5
2023-05-14T08:57:37.861Z,9.5
2023-05-14T08:58:46.425Z,8.7
2023-05-14T08:59:54.763Z,8.7
2023-05-14T09:01:03.106Z,8.7
2023-05-14T09:02:11.682Z,10
2023-05-14T09:03:19.993Z,10
2023-05-14T09:04:28.295Z,10
2023-05-14T09:05:36.835Z,10.3
2023-05-14T09:06:45.179Z,10.3
2023-05-14T09:07:53.537Z,10.3
2023-05-14T09:09:02.090Z,9.8
2023-05-14T09:10:10.431Z,9.8
2023-05-14T09:11:18.779Z,9.8
2023-05-14T09:12:27.335Z,8.8
2023-05-14T09:13:35.706Z,8.8
2023-05-14T09:14:44.044Z,8.8
2023-05-14T09:15:52.594Z,7.8
2023-05-14T09:17:00.937Z,7.8
2023-05-14T09:18:09.314Z,7.8
2023-05-14T09:19:17.934Z,9.1
2023-05-14T09:20:26.712Z,9.1
2023-05-14T09:21:34.533Z,9.1
2023-05-14T09:22:43.063Z,9.1
2023-05-14T09:23:51.395Z,9.1
2023-05-14T09:24:59.728Z,9.1
2023-05-14T09:26:08.270Z,7.4
2023-05-14T09:27:16.616Z,7.4
2023-05-14T09:28:24.950Z,7.4
2023-05-14T09:29:33.496Z,8.6
2023-05-14T09:30:41.846Z,8.6
2023-05-14T09:31:50.194Z,8.6
2023-05-14T09:32:58.723Z,11.3
2023-05-14T09:34:07.058Z,11.3
2023-05-14T09:35:15.381Z,11.3
2023-05-14T09:36:23.934Z,10.6
2023-05-14T09:37:32.282Z,10.6
2023-05-14T09:38:40.612Z,10.6
2023-05-14T09:39:49.167Z,7.7
2023-05-14T09:40:57.519Z,7.7
2023-05-14T09:42:05.860Z,7.7
2023-05-14T09:43:14.423Z,7.1
2023-05-14T09:44:22.793Z,7.1
2023-05-14T09:45:31.157Z,7.1
2023-05-14T09:46:39.750Z,8.1
2023-05-14T09:47:48.211Z,8.1
2023-05-14T09:48:56.424Z,8.1
2023-05-14T09:50:05.003Z,7.4
2023-05-14T09:51:13.321Z,7.4
2023-05-14T09:52:21.657Z,7.4
2023-05-14T09:53:30.194Z,7.4
2023-05-14T09:54:38.534Z,7.4
2023-05-14T09:55:46.864Z,7.4
2023-05-14T09:56:55.935Z,6.7
2023-05-14T09:58:03.755Z,6.7
2023-05-14T09:59:12.115Z,6.7
2023-05-14T10:00:20.767Z,6.7
2023-05-14T10:01:29.033Z,6.7
2023-05-14T10:02:37.323Z,6.7
2023-05-14T10:03:45.883Z,7.3
2023-05-14T10:04:54.255Z,7.3
2023-05-14T10:06:02.572Z,7.3
2023-05-14T10:07:11.096Z,7
2023-05-14T10:08:19.445Z,7
2023-05-14T10:09:27.779Z,7
2023-05-14T10:10:36.322Z,6.9
2023-05-14T10:11:44.713Z,6.9
2023-05-14T10:12:53.025Z,6.9
2023-05-14T10:14:01.553Z,7.2
2023-05-14T10:15:09.889Z,7.2
2023-05-14T10:16:18.297Z,7.2
2023-05-14T10:17:26.811Z,7.9
2023-05-14T10:18:35.172Z,7.9
2023-05-14T10:19:43.477Z,7.9
2023-05-14T10:20:52.036Z,6.7
2023-05-14T10:22:00.394Z,6.7
2023-05-14T10:23:08.719Z,6.7
2023-05-14T10:24:17.282Z,8
2023-05-14T10:25:25.634Z,8
2023-05-14T10:26:33.974Z,8
2023-05-14T10:27:43.428Z,6.4
2023-05-14T10:28:51.765Z,6.4
2023-05-14T10:30:00.143Z,6.4
2023-05-14T10:31:08.642Z,6.1
2023-05-14T10:32:16.993Z,6.1
2023-05-14T10:33:25.316Z,6.1
2023-05-14T10:34:33.842Z,7.5
2023-05-14T10:35:42.178Z,7.5
2023-05-14T10:36:50.534Z,7.5
2023-05-14T10:37:59.099Z,6.3
2023-05-14T10:39:07.427Z,6.3
2023-05-14T10:40:15.768Z,6.3
2023-05-14T10:41:24.302Z,7.4
2023-05-14T10:42:32.652Z,7.4
2023-05-14T10:43:40.985Z,7.4
2023-05-14T10:44:49.568Z,6.6
2023-05-14T10:45:57.885Z,6.6
2023-05-14T10:47:06.264Z,6.6
2023-05-14T10:48:14.816Z,6.9
2023-05-14T10:49:32.447Z,6.9
2023-05-14T10:50:31.476Z,6.9
2023-05-14T10:51:40.077Z,6.6
2023-05-14T10:52:48.369Z,6.6
2023-05-14T10:53:56.730Z,6.6
2023-05-14T10:55:05.249Z,6.6
2023-05-14T10:56:13.618Z,6.6
2023-05-14T10:57:21.955Z,6.6
2023-05-14T10:58:30.493Z,6.6
2023-05-14T10:59:38.830Z,6.6
2023-05-14T11:00:47.169Z,6.6
2023-05-14T11:01:55.725Z,7
2023-05-14T11:03:04.054Z,7
2023-05-14T11:04:12.405Z,7
2023-05-14T11:05:20.948Z,6.5
2023-05-14T11:06:29.308Z,6.5
2023-05-14T11:07:37.651Z,6.5
2023-05-14T11:08:46.209Z,5.3
2023-05-14T11:09:54.558Z,5.3
2023-05-14T11:11:02.888Z,5.3
2023-05-14T11:12:11.427Z,5.9
2023-05-14T11:13:19.776Z,5.9
2023-05-14T11:14:28.109Z,5.9
2023-05-14T11:15:36.663Z,5.9
2023-05-14T11:16:45.037Z,5.9
2023-05-14T11:17:53.359Z,5.9
2023-05-14T11:19:02.038Z,5.6
2023-05-14T11:20:10.240Z,5.6
2023-05-14T11:21:18.587Z,5.6
2023-05-14T11:22:27.149Z,5.7
2023-05-14T11:23:35.446Z,5.7
2023-05-14T11:24:43.786Z,5.7
2023-05-14T11:25:52.360Z,5
2023-05-14T11:27:00.671Z,5
2023-05-14T11:28:08.989Z,5
2023-05-14T11:29:17.546Z,5.6
2023-05-14T11:30:26.035Z,5.6
2023-05-14T11:31:34.273Z,5.6
2023-05-14T11:32:42.837Z,4.8
2023-05-14T11:33:51.091Z,4.8
2023-05-14T11:34:59.455Z,4.8
2023-05-14T11:36:07.986Z,4.7
2023-05-14T11:37:16.324Z,4.7
2023-05-14T11:38:24.651Z,4.7
2023-05-14T11:39:33.200Z,4.9
2023-05-14T11:40:41.538Z,4.9
2023-05-14T11:41:49.910Z,4.9
2023-05-14T11:42:58.421Z,6.1
2023-05-14T11:44:08.534Z,6.1
2023-05-14T11:45:15.094Z,6.1
2023-05-14T11:46:23.664Z,3.9
2023-05-14T11:47:32.010Z,3.9
2023-05-14T11:48:40.353Z,3.9
2023-05-14T11:49:48.939Z,4.6
2023-05-14T11:50:57.240Z,4.6
2023-05-14T11:52:05.589Z,4.6
2023-05-14T11:53:14.110Z,4.9
2023-05-14T11:54:22.482Z,4.9
2023-05-14T11:55:30.832Z,4.9
2023-05-14T11:56:39.360Z,4.1
2023-05-14T11:57:47.731Z,4.1
2023-05-14T11:58:56.048Z,4.1
2023-05-14T12:00:04.593Z,3.8
2023-05-14T12:01:12.920Z,3.8
2023-05-14T12:02:21.402Z,3.8
2023-05-14T12:03:30.293Z,4.7
2023-05-14T12:04:38.205Z,4.7
2023-05-14T12:05:46.475Z,4.7
2023-05-14T12:06:55.053Z,4.6
2023-05-14T12:08:03.358Z,4.6
2023-05-14T12:09:11.684Z,4.6
2023-05-14T12:10:20.229Z,4.4
2023-05-14T12:11:28.578Z,4.4
2023-05-14T12:12:36.938Z,4.4
2023-05-14T12:13:45.499Z,4.1
2023-05-14T12:14:53.804Z,4.1
2023-05-14T12:16:02.272Z,4.1
2023-05-14T12:17:10.717Z,4.2
2023-05-14T12:18:24.386Z,4.2
2023-05-14T12:19:27.442Z,4.2
2023-05-14T12:20:35.932Z,6.3
2023-05-14T12:21:44.280Z,6.3
2023-05-14T12:22:52.608Z,6.3
2023-05-14T12:24:01.172Z,4.5
2023-05-14T12:25:09.513Z,4.5
2023-05-14T12:26:17.870Z,4.5
2023-05-14T12:27:26.439Z,4.9
2023-05-14T12:28:37.042Z,4.9
2023-05-14T12:29:43.116Z,4.9
2023-05-14T12:30:51.646Z,4.1
2023-05-14T12:31:59.970Z,4.1
2023-05-14T12:33:08.343Z,4.1
2023-05-14T12:34:16.848Z,5.7
2023-05-14T12:35:25.315Z,5.7
2023-05-14T12:36:33.510Z,5.7
2023-05-14T12:37:42.065Z,5.3
2023-05-14T12:38:50.394Z,5.3
2023-05-14T12:39:58.734Z,5.3
2023-05-14T12:41:07.276Z,5
2023-05-14T12:42:15.660Z,5
2023-05-14T12:43:24.010Z,5
2023-05-14T12:44:32.527Z,4.8
2023-05-14T12:45:40.900Z,4.8
2023-05-14T12:46:49.219Z,4.8
2023-05-14T12:47:57.765Z,4.8
2023-05-14T12:49:06.107Z,4.8
2023-05-14T12:50:14.448Z,4.8
2023-05-14T12:51:23.004Z,5.2
2023-05-14T12:52:37.253Z,5.2
2023-05-14T12:53:39.683Z,5.2
2023-05-14T12:54:48.243Z,4.7
2023-05-14T12:55:56.598Z,4.7
2023-05-14T12:57:04.952Z,4.7
2023-05-14T12:58:13.467Z,4.8
2023-05-14T12:59:21.819Z,4.8
2023-05-14T13:00:30.147Z,4.8
2023-05-14T13:01:38.756Z,4.5
2023-05-14T13:02:47.074Z,4.5
2023-05-14T13:03:55.390Z,4.5
2023-05-14T13:05:03.924Z,5.4
2023-05-14T13:06:12.263Z,5.4
2023-05-14T13:07:20.591Z,5.4
2023-05-14T13:08:29.138Z,5.3
2023-05-14T13:09:37.463Z,5.3
2023-05-14T13:10:45.792Z,5.3
2023-05-14T13:11:54.336Z,5.3
2023-05-14T13:13:02.691Z,5.3
2023-05-14T13:14:11.024Z,5.3
2023-05-14T13:15:19.573Z,4.5
2023-05-14T13:16:27.923Z,4.5
2023-05-14T13:17:36.307Z,4.5
2023-05-14T13:18:44.831Z,4.8
2023-05-14T13:19:53.141Z,4.8
2023-05-14T13:21:01.447Z,4.8
2023-05-14T13:22:10.009Z,5.6
2023-05-14T13:23:18.316Z,5.6
2023-05-14T13:24:26.660Z,5.6
2023-05-14T13:25:35.209Z,5.8
2023-05-14T13:26:43.539Z,5.8
2023-05-14T13:27:51.886Z,5.8
2023-05-14T13:29:00.427Z,4.6
2023-05-14T13:30:08.755Z,4.6
2023-05-14T13:31:17.134Z,4.6
2023-05-14T13:32:25.698Z,4.8
2023-05-14T13:33:34.015Z,4.8
2023-05-14T13:34:42.330Z,4.8
2023-05-14T13:35:50.883Z,4.1
2023-05-14T13:36:59.224Z,4.1
2023-05-14T13:38:07.569Z,4.1
2023-05-14T13:39:16.093Z,4.9
2023-05-14T13:40:24.436Z,4.9
2023-05-14T13:41:32.791Z,4.9
2023-05-14T13:42:41.340Z,5.4
2023-05-14T13:43:49.681Z,5.4
2023-05-14T13:44:58.010Z,5.4
2023-05-14T13:46:06.693Z,4.4
2023-05-14T13:47:14.915Z,4.4
2023-05-14T13:48:23.234Z,4.4
2023-05-14T13:49:31.908Z,4.3
2023-05-14T13:50:40.191Z,4.3
2023-05-14T13:51:48.525Z,4.3
2023-05-14T13:52:57.076Z,5
2023-05-14T13:54:05.426Z,5
2023-05-14T13:55:13.755Z,5
2023-05-14T13:56:22.301Z,5.1
2023-05-14T13:57:30.641Z,5.1
2023-05-14T13:58:38.958Z,5.1
2023-05-14T13:59:47.509Z,4.7
2023-05-14T14:00:55.848Z,4.7
2023-05-14T14:02:04.314Z,4.7
2023-05-14T14:03:12.769Z,5.6
2023-05-14T14:04:21.106Z,5.6
2023-05-14T14:05:29.500Z,5.6
2023-05-14T14:06:37.998Z,9.9
2023-05-14T14:07:47.564Z,9.9
2023-05-14T14:08:54.702Z,9.9
2023-05-14T14:10:03.251Z,6.6
2023-05-14T14:11:11.596Z,6.6
2023-05-14T14:12:20.043Z,6.6
2023-05-14T14:13:28.536Z,6.1
2023-05-14T14:14:36.893Z,6.1
2023-05-14T14:15:45.255Z,6.1
2023-05-14T14:16:53.777Z,7
2023-05-14T14:18:02.170Z,7
2023-05-14T14:19:10.515Z,7
2023-05-14T14:20:19.020Z,6.8
2023-05-14T14:21:28.092Z,6.8
2023-05-14T14:22:36.451Z,6.8
2023-05-14T14:23:44.980Z,6.8
2023-05-14T14:24:53.322Z,6.8
2023-05-14T14:26:01.705Z,6.8
2023-05-14T14:27:10.268Z,6.9
2023-05-14T14:28:18.625Z,6.9
2023-05-14T14:29:26.974Z,6.9
2023-05-14T14:30:35.534Z,7.4
2023-05-14T14:31:43.891Z,7.4
2023-05-14T14:32:52.244Z,7.4
2023-05-14T14:34:00.763Z,7.3
2023-05-14T14:35:09.109Z,7.3
2023-05-14T14:36:17.435Z,7.3
2023-05-14T14:37:26.003Z,7
2023-05-14T14:38:34.324Z,7
2023-05-14T14:39:42.651Z,7
2023-05-14T14:40:51.207Z,6.8
2023-05-14T14:41:59.541Z,6.8
2023-05-14T14:43:07.875Z,6.8
2023-05-14T14:44:16.410Z,6.8
2023-05-14T14:45:24.930Z,6.8
2023-05-14T14:46:33.166Z,6.8
2023-05-14T14:47:41.709Z,6.2
2023-05-14T14:48:49.997Z,6.2
2023-05-14T14:49:58.332Z,6.2
2023-05-14T14:51:06.871Z,6.3
2023-05-14T14:52:15.227Z,6.3
2023-05-14T14:53:23.581Z,6.3
2023-05-14T14:54:32.113Z,5.9
2023-05-14T14:55:40.446Z,5.9
2023-05-14T14:56:48.807Z,5.9
2023-05-14T14:57:57.346Z,6.9
2023-05-14T14:59:05.696Z,6.9
2023-05-14T15:00:14.030Z,6.9
2023-05-14T15:01:22.604Z,6
2023-05-14T15:02:31.013Z,6
2023-05-14T15:03:39.300Z,6
2023-05-14T15:04:47.787Z,5.9
2023-05-14T15:05:56.136Z,5.9
2023-05-14T15:07:04.466Z,5.9
2023-05-14T15:08:12.991Z,5.7
2023-05-14T15:09:21.352Z,5.7
2023-05-14T15:10:29.670Z,5.7
2023-05-14T15:11:38.206Z,6.1
2023-05-14T15:45:40.948Z,0
2023-05-14T15:46:49.304Z,0
2023-05-14T15:47:57.642Z,0
2023-05-14T15:49:06.145Z,7.1
2023-05-14T15:50:14.498Z,7.1
2023-05-14T15:51:22.824Z,7.1
2023-05-14T15:52:31.384Z,7.5
2023-05-14T15:53:39.704Z,7.5
2023-05-14T15:54:48.073Z,7.5
2023-05-14T15:55:56.657Z,7.9
2023-05-14T15:57:06.982Z,7.9
2023-05-14T15:58:15.323Z,7.9
2023-05-14T15:59:23.879Z,7
2023-05-14T16:00:32.245Z,7
2023-05-14T16:01:40.701Z,7
2023-05-14T16:02:49.237Z,6.3
2023-05-14T16:03:57.525Z,6.3
2023-05-14T16:05:05.829Z,6.3
2023-05-14T16:06:14.423Z,6.9
2023-05-14T16:07:22.765Z,6.9
2023-05-14T16:08:31.098Z,6.9
2023-05-14T16:09:39.650Z,6.2
2023-05-14T16:10:47.991Z,6.2
2023-05-14T16:11:56.354Z,6.2
2023-05-14T16:13:04.916Z,6.1
2023-05-14T16:14:13.247Z,6.1
2023-05-14T16:15:21.592Z,6.1
2023-05-14T16:16:30.237Z,8.9
2023-05-14T16:17:38.556Z,8.9
2023-05-14T16:18:46.876Z,8.9
2023-05-14T16:19:56.221Z,6.2
2023-05-14T16:21:03.762Z,6.2
2023-05-14T16:22:12.097Z,6.2
2023-05-14T16:23:20.644Z,6.2